Главная страница
METAR-TAF:

METAR-TAF

Аэропорты :

Ларнака, Кипр

широта: 34-53N, долгота: 033-38E, высота над уровнем моря: 2 м

Текущие метеонаблюдения

Эта сводка был подготовлена 29 минут назад, в 13:30 UTC
Ветер 7 Узел от южный, изменяющийся между юго-юго-восточный и юго-западный
Температура 22°C
Влажность 53%
Давление 1015 hPa
Видимость 10 км и более
небольшая облачность на высоте 4000 фута

METAR: LCLK 221330Z 19007KT 150V220 9999 FEW040 22/12 Q1015 NOSIG

Время: 15:59 (13:59 UTC)

Прогноз

Эта сводка был подготовлена 2 часа и 29 минут назад, в 11:30 UTC
Прогноз действительный с 22-го 12 UTC до 23-го 12 UTC
Ветер 10 Узел от юго-юго-восточный
Видимость 10 км и более
Нет облачности ниже 1500 м, и нет кучево-дождевой облачности
изменения
С 22-го 15 UTC до 22-го 19 UTC
Ветер 6 Узел от северно-северо-западный
изменения
С 23-го 08 UTC до 23-го 12 UTC
Ветер 10 Узел от юго-восточный

TAF: LCLK 221130Z 2212/2312 16010KT CAVOK BECMG 2215/2219 33006KT BECMG 2308/2312 13010KT

Метеонаблюдения и прогнозы для более 4000 аэропортов (сводки METAR и TAF).

Имеющиеся станции представлены на карте желтыми и красными точками.

Чтобы увидеть название станции, наведите на нее мышь.

Затем щелкните, чтобы увидеть метеонаблюдения и метеопрогнозы.

Управление картой: чтобы увеличить масштаб, щелкните зеленые кнопки с черным крестиком; чтобы уменьшить масштаб, щелкните зеленую кнопку с тире; для просмотра соседних карт щелкайте зеленые стрелки.


METAR-TAF: